Bookmark and Share
Track history (hours):
 

Drifting buoy 46930

Last reported at 2014-Apr-25 03:00 UTC. Time now 2014-Apr-25 06:19 UTC.
Position N 29°26' W 118°51'.

Water temperature 16.9 ° C

NotesDate/timePositionNaut miles runAvg speedWind from/ knotsBaromVisibWave heightAir tempDewpointWater temp
2014-Apr-25 03:00N 29°26' W 118°51'1 0.6 16.9
2014-Apr-25 02:00N 29°27' W 118°51'1 0.2 16.9
2014-Apr-24 23:00N 29°27' W 118°52'1 0.5 17.0
2014-Apr-24 21:00N 29°28' W 118°51'1 0.4 17.0
2014-Apr-24 18:00N 29°27' W 118°52'0 0.2 16.8
2014-Apr-24 17:00N 29°27' W 118°52'0 0.0 16.8
2014-Apr-24 16:00N 29°27' W 118°52'0 0.4 16.8
2014-Apr-24 15:00N 29°27' W 118°52'1 0.3 16.7
2014-Apr-24 13:00N 29°27' W 118°51'1 0.5 16.7
2014-Apr-24 11:00N 29°28' W 118°51'0 0.0 16.7
2014-Apr-24 10:00N 29°28' W 118°51'1 0.4 16.8
2014-Apr-24 08:00N 29°28' W 118°51'1 1.1 16.8
2014-Apr-24 07:00N 29°30' W 118°51'0 0.0 16.8
2014-Apr-24 05:00N 29°29' W 118°51'1 0.2 16.8
2014-Apr-24 02:00N 29°30' W 118°50'1 1.3 16.8
2014-Apr-24 01:00N 29°30' W 118°51'0 0.1 16.8
2014-Apr-24 00:00N 29°30' W 118°51'1 0.3 16.9
2014-Apr-23 21:00N 29°31' W 118°52'1 0.5 16.9
2014-Apr-23 19:00N 29°31' W 118°51'0 0.3 16.8
2014-Apr-23 18:00N 29°31' W 118°52'0 0.1 16.8
2014-Apr-23 17:00N 29°31' W 118°52'0 0.2 16.8
2014-Apr-23 15:00N 29°31' W 118°51'0 0.0 16.7
2014-Apr-23 13:00N 29°31' W 118°51'0 0.5 16.7
2014-Apr-23 12:00N 29°31' W 118°50'1 0.7 16.8
2014-Apr-23 11:00N 29°32' W 118°50'0 0.0 16.8
2014-Apr-23 10:00N 29°32' W 118°50'1 0.4 16.8
2014-Apr-23 08:00N 29°33' W 118°50'2 0.8 16.8
2014-Apr-23 06:00N 29°34' W 118°49'0 0.3 16.8
2014-Apr-23 05:00N 29°34' W 118°50'0 0.3 16.9
2014-Apr-23 04:00N 29°34' W 118°50'0 0.3 16.9
2014-Apr-23 03:00N 29°35' W 118°50'0 0.1 16.9
2014-Apr-23 00:00N 29°35' W 118°50'1 1.0 16.9
2014-Apr-22 23:00N 29°35' W 118°49'0 0.1 16.9
2014-Apr-22 20:00N 29°35' W 118°49'0 0.3 16.9
2014-Apr-22 19:00N 29°35' W 118°49'1 0.6 16.9
2014-Apr-22 18:00N 29°36' W 118°49'0 0.1 16.8
2014-Apr-22 17:00N 29°36' W 118°49'0 0.4 16.8
2014-Apr-22 16:00N 29°37' W 118°49'0 0.2 16.8
2014-Apr-22 15:00N 29°37' W 118°49'0 0.1 16.8
2014-Apr-22 13:00N 29°37' W 118°49'0 0.0 16.8
2014-Apr-22 12:00N 29°37' W 118°49'0 0.4 16.8
2014-Apr-22 11:00N 29°37' W 118°49'0 0.0 16.8
2014-Apr-22 10:00N 29°37' W 118°49'1 0.4 16.8
2014-Apr-22 08:00N 29°38' W 118°48'1 1.1 16.8
2014-Apr-22 07:00N 29°39' W 118°48'1 0.3 16.8
2014-Apr-22 05:00N 29°39' W 118°49'1 0.3 16.8
2014-Apr-22 03:00N 29°40' W 118°49'1 0.5 16.8
2014-Apr-22 02:00N 29°40' W 118°49'1 0.2 16.9
2014-Apr-21 23:00N 29°40' W 118°49'0 0.2 16.9
2014-Apr-21 21:00N 29°40' W 118°50'0 0.1 16.9
2014-Apr-21 20:00N 29°40' W 118°50'1 0.5 16.8
2014-Apr-21 19:00N 29°40' W 118°50'0 0.1 16.8
2014-Apr-21 18:00N 29°40' W 118°50'1 0.6 16.8
2014-Apr-21 17:00N 29°41' W 118°50'0 0.1 16.7
2014-Apr-21 14:00N 29°41' W 118°50'0 0.1 16.7
2014-Apr-21 12:00N 29°41' W 118°50'0 0.5 16.7
2014-Apr-21 11:00N 29°41' W 118°50'2 0.3 16.7
2014-Apr-21 05:00N 29°43' W 118°50'1 0.8 16.7
2014-Apr-21 04:00N 29°44' W 118°50'1 0.9 16.7
2014-Apr-21 03:00N 29°44' W 118°51'0 0.0 16.7
2014-Apr-21 02:00N 29°44' W 118°51'0 0.2 16.7
2014-Apr-21 01:00N 29°44' W 118°51'1 0.5 16.7
2014-Apr-20 23:00N 29°45' W 118°52'0 0.3 16.8
2014-Apr-20 22:00N 29°45' W 118°52'1 0.6 16.8
2014-Apr-20 21:00N 29°45' W 118°53'0 0.0 16.8
2014-Apr-20 20:00N 29°45' W 118°53'1 0.6 16.7
2014-Apr-20 19:00N 29°45' W 118°53'1 0.2 16.7
2014-Apr-20 13:00N 29°46' W 118°53'0 0.5 16.6
2014-Apr-20 12:00N 29°46' W 118°53'1 0.5 16.6
2014-Apr-20 11:00N 29°46' W 118°53'0 0.5 16.6
2014-Apr-20 10:00N 29°47' W 118°54'0 0.0 16.6
2014-Apr-20 09:00N 29°47' W 118°54'1 0.3 16.6
2014-Apr-20 04:00N 29°48' W 118°54'0 0.3 16.6
2014-Apr-20 03:00N 29°48' W 118°54'1 0.7 16.6
2014-Apr-20 02:00N 29°49' W 118°55'0 0.4 16.6
2014-Apr-20 01:00N 29°49' W 118°56'1 0.3 16.6
2014-Apr-19 22:00N 29°48' W 118°56'0 0.1 16.6
2014-Apr-19 19:00N 29°49' W 118°57'0 0.1 16.6
2014-Apr-19 18:00N 29°49' W 118°56'0 0.1 16.6
2014-Apr-19 17:00N 29°49' W 118°57'0 0.2 16.6
2014-Apr-19 16:00N 29°49' W 118°56'0 0.0 16.6
2014-Apr-19 15:00N 29°49' W 118°56'1 0.2 16.6
2014-Apr-19 12:00N 29°49' W 118°56'1 0.3 16.6
2014-Apr-19 09:00N 29°50' W 118°57'0 0.5 16.6
2014-Apr-19 08:00N 29°51' W 118°57'1 0.4 16.6
2014-Apr-19 06:00N 29°51' W 118°56'1 0.4 16.6
2014-Apr-19 04:00N 29°52' W 118°56'1 0.8 16.6
2014-Apr-19 03:00N 29°53' W 118°57'0 0.2 16.7
2014-Apr-19 01:00N 29°53' W 118°57'0 0.2 16.7
2014-Apr-18 23:00N 29°53' W 118°57'0 0.1 16.7
2014-Apr-18 22:00N 29°53' W 118°57'1 0.3 16.7
2014-Apr-18 19:00N 29°53' W 118°56'0 0.3 16.7
2014-Apr-18 18:00N 29°53' W 118°56'0 0.2 16.6
2014-Apr-18 16:00N 29°53' W 118°56'0 0.5 16.5
2014-Apr-18 15:00N 29°53' W 118°55'1 0.5 16.5
2014-Apr-18 14:00N 29°53' W 118°55'0 0.0 16.5
2014-Apr-18 13:00N 29°53' W 118°55'0 0.4 16.5
2014-Apr-18 12:00N 29°54' W 118°55'0 0.3 16.5
2014-Apr-18 11:00N 29°54' W 118°54'1 0.2 16.5
2014-Apr-18 06:00N 29°55' W 118°53'0 0.3 16.5
2014-Apr-18 05:00N 29°55' W 118°54'1 0.5 16.5
2014-Apr-18 04:00N 29°55' W 118°53'0 0.4 16.5
2014-Apr-18 03:00N 29°55' W 118°53'0 0.0 16.6
2014-Apr-18 02:00N 29°55' W 118°53'0 0.1 16.6
2014-Apr-18 00:00N 29°56' W 118°53'1 0.3 16.6
2014-Apr-17 22:00N 29°56' W 118°54'0 0.1 16.6
2014-Apr-17 20:00N 29°55' W 118°54'0 0.2 16.6
2014-Apr-17 19:00N 29°56' W 118°54'0 0.3 16.5
2014-Apr-17 18:00N 29°55' W 118°54'0 0.2 16.6
2014-Apr-17 17:00N 29°55' W 118°54'1 0.3 16.5
2014-Apr-17 14:00N 29°55' W 118°53'0 0.2 16.5
2014-Apr-17 13:00N 29°55' W 118°53'0 0.4 16.5
2014-Apr-17 12:00N 29°55' W 118°53'0 0.2 16.5
2014-Apr-17 11:00N 29°55' W 118°53'1 0.2 16.5
2014-Apr-17 06:00N 29°56' W 118°52'0 0.1 16.5
2014-Apr-17 05:00N 29°56' W 118°52'0 0.2 16.5
2014-Apr-17 04:00N 29°56' W 118°52'0 0.2 16.5
2014-Apr-17 02:00N 29°57' W 118°51'1 0.5 16.6
2014-Apr-17 00:00N 29°58' W 118°52'1 0.4 16.6
2014-Apr-16 22:00N 29°58' W 118°53'1 1.2 16.6
2014-Apr-16 21:00N 29°58' W 118°54'1 0.3 16.6
2014-Apr-16 18:00N 29°58' W 118°53'0 0.2 16.5
2014-Apr-16 17:00N 29°58' W 118°53'1 0.5 16.5
2014-Apr-16 15:00N 29°58' W 118°52'0 0.2 16.5
2014-Apr-16 13:00N 29°58' W 118°51'1 0.4 16.5
2014-Apr-16 11:00N 29°59' W 118°51'1 0.8 16.5
2014-Apr-16 10:00N 29°60' W 118°52'0 0.4 16.5
2014-Apr-16 09:00N 29°60' W 118°51'1 0.5 16.5
2014-Apr-16 06:00N 30°01' W 118°51'1 0.7 16.5
2014-Apr-16 04:00N 30°02' W 118°50'0 0.1 16.5
2014-Apr-16 03:00N 30°02' W 118°50'0 0.2 16.6
2014-Apr-16 02:00N 30°02' W 118°50'1 0.5 16.6
2014-Apr-16 00:00N 30°03' W 118°50'1 0.4 16.6
2014-Apr-15 21:00N 30°04' W 118°49'2 0.5 16.6
2014-Apr-15 17:00N 30°05' W 118°51'0 0.0 16.5
2014-Apr-15 16:00N 30°05' W 118°51'0 0.0 16.5
2014-Apr-15 15:00N 30°05' W 118°51'0 0.2 16.5
2014-Apr-15 13:00N 30°05' W 118°51'0 0.1 16.5
2014-Apr-15 12:00N 30°05' W 118°51'1 1.1 16.5
2014-Apr-15 11:00N 30°05' W 118°50'1 0.3 16.5
2014-Apr-15 08:00N 30°06' W 118°50'1 0.5 16.5
2014-Apr-15 07:00N 30°06' W 118°50'1 0.7 16.5
2014-Apr-15 06:00N 30°07' W 118°50'0 0.1 16.5
2014-Apr-15 05:00N 30°07' W 118°50'1 0.7 16.5
2014-Apr-15 03:00N 30°08' W 118°51'   16.5

Dump ship's entire track history

sailing weather and tide predictions

Buoy 46930